Time;durP1;ratioP1;P1;durP2;ratioP2;P2;SDS_P1;SDS_P2;PMS_P1;PMS_P2;Temp;Humidity;BMP_temperature;BMP_pressure;BME280_temperature;BME280_humidity;BME280_pressure;Samples;Min_cycle;Max_cycle;Signal;HPM_P1;HPM_P2
2023/04/13 00:01:59;;;;;;;11.43;6.15;;;4.60;99.90;;;;;;4314499;28;9999914;-70
2023/04/13 00:04:30;;;;;;;8.13;5.70;;;4.60;99.90;;;;;;5018310;28;20533;-70
2023/04/13 00:06:57;;;;;;;9.85;6.55;;;4.60;99.90;;;;;;5009120;28;20037;-70
2023/04/13 00:09:24;;;;;;;10.05;6.30;;;4.60;99.90;;;;;;5023293;28;20441;-70
2023/04/13 00:11:50;;;;;;;8.88;6.18;;;4.60;99.90;;;;;;5012572;28;20033;-70
2023/04/13 00:14:17;;;;;;;8.00;5.25;;;4.60;99.90;;;;;;5012095;28;20227;-70
2023/04/13 00:16:45;;;;;;;9.98;4.90;;;4.50;99.90;;;;;;5009658;28;20025;-70
2023/04/13 00:19:11;;;;;;;6.97;4.10;;;4.50;99.90;;;;;;5009988;28;20514;-70
2023/04/13 00:21:40;;;;;;;5.80;3.17;;;4.50;99.90;;;;;;5013109;28;20033;-70
2023/04/13 00:24:07;;;;;;;8.63;3.15;;;4.50;99.90;;;;;;5012612;28;20045;-70
2023/04/13 00:26:32;;;;;;;5.70;3.13;;;4.50;99.90;;;;;;5017090;28;20503;-70
2023/04/13 00:28:58;;;;;;;7.28;2.88;;;4.50;99.90;;;;;;5014307;28;20033;-70
2023/04/13 00:31:23;;;;;;;4.07;3.08;;;4.50;99.90;;;;;;5020643;28;20493;-70
2023/04/13 00:33:49;;;;;;;6.53;3.30;;;4.40;99.90;;;;;;5015355;28;20049;-70
2023/04/13 00:36:15;;;;;;;6.72;3.90;;;4.40;99.90;;;;;;5014092;28;20147;-70
2023/04/13 00:38:43;;;;;;;7.70;3.22;;;4.40;99.90;;;;;;5021248;28;20482;-70
2023/04/13 00:41:11;;;;;;;4.65;3.30;;;4.30;99.90;;;;;;5016285;28;20044;-70
2023/04/13 00:43:37;;;;;;;5.75;2.83;;;4.30;99.90;;;;;;5021411;28;20446;-70
2023/04/13 00:46:04;;;;;;;4.07;2.50;;;4.30;99.90;;;;;;5016728;28;20029;-70
2023/04/13 00:48:30;;;;;;;4.30;2.28;;;4.30;99.90;;;;;;5025742;28;20045;-70
2023/04/13 00:50:55;;;;;;;4.20;2.20;;;4.30;99.90;;;;;;5025591;28;20037;-70
2023/04/13 00:53:22;;;;;;;3.75;1.83;;;4.20;99.90;;;;;;5015593;28;20038;-70
2023/04/13 00:55:48;;;;;;;3.67;2.17;;;4.20;99.90;;;;;;5021702;28;20092;-70
2023/04/13 00:58:14;;;;;;;3.28;2.00;;;4.20;99.90;;;;;;5015449;28;20030;-71
2023/04/13 01:00:41;;;;;;;3.72;1.80;;;4.20;99.90;;;;;;5017787;28;20028;-70
2023/04/13 01:03:08;;;;;;;3.05;1.63;;;4.20;99.90;;;;;;5020141;28;20037;-70
2023/04/13 01:05:52;;;;;;;3.50;1.50;;;4.20;99.90;;;;;;5025318;28;20042;-71
2023/04/13 01:08:18;;;;;;;2.63;1.48;;;4.20;99.90;;;;;;5011526;28;20030;-71
2023/04/13 01:10:55;;;;;;;4.15;1.60;;;4.20;99.90;;;;;;5023356;28;20041;-71
2023/04/13 01:13:29;;;;;;;4.10;1.27;;;4.20;99.90;;;;;;5015015;28;20034;-70
2023/04/13 01:16:19;;;;;;;4.15;1.58;;;4.20;99.90;;;;;;5024351;28;20364;-71
2023/04/13 01:18:48;;;;;;;1.92;1.27;;;4.20;99.90;;;;;;5007330;28;20038;-70
2023/04/13 01:21:18;;;;;;;3.05;1.20;;;4.20;99.90;;;;;;5020487;28;20033;-71
2023/04/13 01:24:08;;;;;;;2.83;1.48;;;4.20;99.90;;;;;;5018363;28;20070;-70
2023/04/13 01:26:52;;;;;;;3.90;1.52;;;4.30;99.90;;;;;;5016389;28;20053;-70
2023/04/13 01:29:18;;;;;;;2.67;1.30;;;4.20;99.90;;;;;;5026111;28;20041;-70
2023/04/13 01:31:44;;;;;;;2.03;1.20;;;4.20;99.90;;;;;;5021820;28;20116;-70
2023/04/13 01:34:10;;;;;;;3.75;1.20;;;4.20;99.90;;;;;;5016617;28;20041;-70
2023/04/13 01:36:38;;;;;;;3.67;1.40;;;4.20;99.90;;;;;;5018422;28;20026;-70
2023/04/13 01:39:04;;;;;;;4.45;1.75;;;4.20;99.90;;;;;;5017760;28;20038;-71
2023/04/13 01:41:30;;;;;;;3.10;1.20;;;4.20;99.90;;;;;;5024089;28;20037;-70
2023/04/13 01:43:55;;;;;;;5.68;1.45;;;4.20;99.90;;;;;;5018229;28;20079;-70
2023/04/13 01:46:25;;;;;;;3.25;1.45;;;4.30;99.90;;;;;;5011762;28;20034;-70
2023/04/13 01:48:57;;;;;;;1.90;1.35;;;4.20;99.90;;;;;;5018303;28;20578;-70
2023/04/13 01:51:31;;;;;;;1.55;1.20;;;4.30;99.90;;;;;;5020063;28;20511;-70
2023/04/13 01:54:10;;;;;;;;;;;4.40;99.90;;;;;;5013441;28;20044;-70
2023/04/13 01:56:39;;;;;;;1.98;1.10;;;4.40;99.90;;;;;;5017945;28;19917;-70
2023/04/13 01:59:06;;;;;;;2.22;1.00;;;4.40;99.90;;;;;;5016630;28;20030;-70
2023/04/13 02:01:31;;;;;;;1.75;1.05;;;4.40;99.90;;;;;;5021981;28;20032;-70
2023/04/13 02:03:57;;;;;;;3.63;1.33;;;4.40;99.90;;;;;;5019582;28;20021;-70
2023/04/13 02:06:23;;;;;;;6.47;1.20;;;4.40;99.90;;;;;;5023090;28;20034;-70
2023/04/13 02:08:49;;;;;;;2.97;1.05;;;4.30;99.90;;;;;;5015038;28;20064;-70
2023/04/13 02:11:17;;;;;;;3.03;1.30;;;4.30;99.90;;;;;;5021089;28;20042;-70
2023/04/13 02:13:43;;;;;;;2.78;1.10;;;4.30;99.90;;;;;;5016628;28;20022;-70
2023/04/13 02:16:09;;;;;;;2.25;1.10;;;4.20;99.90;;;;;;5011877;28;20037;-70
2023/04/13 02:18:35;;;;;;;2.17;1.08;;;4.20;99.90;;;;;;5020217;28;20104;-70
2023/04/13 02:21:08;;;;;;;1.70;1.20;;;4.20;99.90;;;;;;5022381;28;20040;-70
2023/04/13 02:23:35;;;;;;;3.92;1.20;;;4.10;99.90;;;;;;5014757;28;20143;-70
2023/04/13 02:26:01;;;;;;;5.30;1.45;;;4.10;99.90;;;;;;5009529;28;20520;-70
2023/04/13 02:28:30;;;;;;;6.82;1.40;;;4.10;99.90;;;;;;5010974;28;20037;-70
2023/04/13 02:30:58;;;;;;;6.18;1.33;;;4.10;99.90;;;;;;5016633;28;20052;-70
2023/04/13 02:33:29;;;;;;;4.93;1.42;;;4.10;99.90;;;;;;5015271;28;20041;-70
2023/04/13 02:35:54;;;;;;;4.32;1.40;;;4.10;99.90;;;;;;5010196;28;20032;-70
2023/04/13 02:38:20;;;;;;;3.20;1.60;;;4.10;99.90;;;;;;5023702;28;20038;-70
2023/04/13 02:40:46;;;;;;;5.15;1.85;;;4.20;99.90;;;;;;5017452;28;20021;-69
2023/04/13 02:43:11;;;;;;;4.63;1.60;;;4.30;99.90;;;;;;5016916;28;20406;-70
2023/04/13 02:45:41;;;;;;;4.85;1.50;;;4.30;99.90;;;;;;5023146;28;20098;-70
2023/04/13 02:48:09;;;;;;;4.97;1.33;;;4.40;99.90;;;;;;5015536;28;20044;-70
2023/04/13 02:50:35;;;;;;;4.32;1.50;;;4.50;99.90;;;;;;5019837;28;20398;-70
2023/04/13 02:53:00;;;;;;;4.97;1.70;;;4.50;99.90;;;;;;5009533;28;20025;-70
2023/04/13 02:55:26;;;;;;;4.63;2.13;;;4.50;99.90;;;;;;5012567;28;20232;-70
2023/04/13 02:57:53;;;;;;;2.55;1.45;;;4.60;99.90;;;;;;5006669;28;20499;-70
2023/04/13 03:00:19;;;;;;;8.88;1.70;;;4.70;99.90;;;;;;5011342;28;20018;-70
2023/04/13 03:02:45;;;;;;;3.80;1.50;;;4.70;99.90;;;;;;5021684;28;20086;-70
2023/04/13 03:05:13;;;;;;;6.65;1.70;;;4.80;99.90;;;;;;5013881;28;20053;-70
2023/04/13 03:07:38;;;;;;;6.22;2.13;;;4.80;99.90;;;;;;5018888;28;20064;-70
2023/04/13 03:10:05;;;;;;;5.10;1.70;;;4.80;99.90;;;;;;5028016;28;20061;-71
2023/04/13 03:12:31;;;;;;;7.90;2.00;;;4.80;99.90;;;;;;5019637;28;20018;-71
2023/04/13 03:15:00;;;;;;;6.72;1.88;;;4.90;99.90;;;;;;5012452;28;20033;-71
2023/04/13 03:17:27;;;;;;;3.88;1.60;;;4.90;99.90;;;;;;5023257;28;20521;-70
2023/04/13 03:19:53;;;;;;;5.15;1.45;;;5.00;99.90;;;;;;5017424;28;20532;-70
2023/04/13 03:22:18;;;;;;;3.58;1.23;;;5.00;99.90;;;;;;5013057;28;20037;-70
2023/04/13 03:24:44;;;;;;;3.00;1.42;;;5.10;99.90;;;;;;5014502;28;20037;-70
2023/04/13 03:27:09;;;;;;;1.55;1.05;;;5.10;99.90;;;;;;5027908;28;20041;-71
2023/04/13 03:29:35;;;;;;;4.20;1.20;;;5.20;99.90;;;;;;5014817;28;20069;-70
2023/04/13 03:32:01;;;;;;;5.00;1.00;;;5.20;99.90;;;;;;5017012;28;20030;-71
2023/04/13 03:34:27;;;;;;;3.20;1.10;;;5.20;99.90;;;;;;5008093;28;20164;-71
2023/04/13 03:36:52;;;;;;;3.35;1.20;;;5.20;99.90;;;;;;5008730;28;21953;-71
2023/04/13 03:39:18;;;;;;;4.03;1.00;;;5.20;99.90;;;;;;5009691;28;20103;-71
2023/04/13 03:41:44;;;;;;;3.03;1.02;;;5.20;99.90;;;;;;5011866;28;20026;-71
2023/04/13 03:44:09;;;;;;;2.28;1.10;;;5.20;99.90;;;;;;5017860;28;20030;-71
2023/04/13 03:46:36;;;;;;;2.25;1.10;;;5.20;99.90;;;;;;5012364;28;20091;-71
2023/04/13 03:49:05;;;;;;;3.97;1.20;;;5.20;99.90;;;;;;5010770;28;20622;-71
2023/04/13 03:51:31;;;;;;;3.67;1.40;;;5.20;99.90;;;;;;5008096;28;20026;-70
2023/04/13 03:53:57;;;;;;;4.20;1.27;;;5.20;99.90;;;;;;5022570;28;20103;-71
2023/04/13 03:56:22;;;;;;;5.70;1.23;;;5.20;99.90;;;;;;5017175;28;20490;-70
2023/04/13 03:58:48;;;;;;;3.42;1.20;;;5.20;99.90;;;;;;5021422;28;20037;-70
2023/04/13 04:01:14;;;;;;;2.70;1.20;;;5.20;99.90;;;;;;5009920;28;20775;-70
2023/04/13 04:03:39;;;;;;;3.92;1.20;;;5.30;99.90;;;;;;5008038;28;20037;-71
2023/04/13 04:06:05;;;;;;;2.30;1.20;;;5.30;99.90;;;;;;5005120;28;20041;-70
2023/04/13 04:08:31;;;;;;;3.92;1.33;;;5.30;99.90;;;;;;5024505;28;20115;-70
2023/04/13 04:10:57;;;;;;;5.85;1.10;;;5.30;99.90;;;;;;5011256;28;20644;-70
2023/04/13 04:13:22;;;;;;;6.90;1.40;;;5.30;99.90;;;;;;5010646;28;20033;-70
2023/04/13 04:15:48;;;;;;;4.03;1.33;;;5.30;99.90;;;;;;5015667;28;20052;-70
2023/04/13 04:18:14;;;;;;;2.55;1.10;;;5.30;99.90;;;;;;5019563;28;20492;-70
2023/04/13 04:20:39;;;;;;;3.85;1.20;;;5.40;99.90;;;;;;5027798;28;20025;-70
2023/04/13 04:23:08;;;;;;;4.80;1.10;;;5.40;99.90;;;;;;5016614;28;20029;-70
2023/04/13 04:25:36;;;;;;;3.92;1.40;;;5.40;99.90;;;;;;5011977;28;20049;-70
2023/04/13 04:28:03;;;;;;;4.90;1.10;;;5.40;99.90;;;;;;5012894;28;20039;-70
2023/04/13 04:30:29;;;;;;;3.83;0.95;;;5.40;99.90;;;;;;5016078;28;20030;-70
2023/04/13 04:32:55;;;;;;;3.60;1.13;;;5.40;99.90;;;;;;5018919;28;20045;-70
2023/04/13 04:35:25;;;;;;;5.80;0.93;;;5.40;99.90;;;;;;5022373;28;20026;-70
2023/04/13 04:37:54;;;;;;;5.70;1.13;;;5.40;99.90;;;;;;5019585;28;20566;-70
2023/04/13 04:40:21;;;;;;;5.63;1.30;;;5.40;99.90;;;;;;5019900;28;20038;-71
2023/04/13 04:42:47;;;;;;;5.15;1.20;;;5.30;99.90;;;;;;5019590;28;20116;-71
2023/04/13 04:45:15;;;;;;;4.10;1.30;;;5.40;99.90;;;;;;5021642;28;20751;-70
2023/04/13 04:47:42;;;;;;;6.00;0.98;;;5.40;99.90;;;;;;5009755;28;20486;-71
2023/04/13 04:50:11;;;;;;;4.57;0.90;;;5.40;99.90;;;;;;5011741;28;20056;-71
2023/04/13 04:52:38;;;;;;;6.05;1.30;;;5.40;99.90;;;;;;5010316;28;20018;-71
2023/04/13 04:55:05;;;;;;;6.78;1.50;;;5.30;99.90;;;;;;5015757;28;20544;-71
2023/04/13 04:57:31;;;;;;;5.22;1.20;;;5.30;99.90;;;;;;5012363;28;20030;-71
2023/04/13 04:59:57;;;;;;;4.30;1.40;;;5.30;99.90;;;;;;5006801;28;20080;-71
2023/04/13 05:02:23;;;;;;;7.63;1.45;;;5.30;99.90;;;;;;5007831;28;20025;-71
2023/04/13 05:04:48;;;;;;;5.03;1.23;;;5.30;99.90;;;;;;5013995;28;20723;-71
2023/04/13 05:07:16;;;;;;;5.03;1.23;;;5.40;99.90;;;;;;5010849;28;20033;-70
2023/04/13 05:09:42;;;;;;;4.55;1.20;;;5.40;99.90;;;;;;5014360;28;20762;-71
2023/04/13 05:12:08;;;;;;;7.22;1.15;;;5.40;99.90;;;;;;5024602;28;20753;-71
2023/04/13 05:14:34;;;;;;;5.22;1.20;;;5.40;99.90;;;;;;5014419;28;20061;-71
2023/04/13 05:17:00;;;;;;;9.18;1.25;;;5.40;99.90;;;;;;5012940;28;20260;-70
2023/04/13 05:19:26;;;;;;;7.07;1.48;;;5.50;99.90;;;;;;5013860;28;20059;-70
2023/04/13 05:21:52;;;;;;;7.28;1.45;;;5.50;99.90;;;;;;5011353;28;20112;-69
2023/04/13 05:24:18;;;;;;;9.32;1.60;;;5.60;99.90;;;;;;5012979;28;20608;-70
2023/04/13 05:26:43;;;;;;;6.80;1.13;;;5.60;99.90;;;;;;5010158;28;20466;-71
2023/04/13 05:29:09;;;;;;;6.53;1.45;;;5.60;99.90;;;;;;5009727;28;20044;-71
2023/04/13 05:31:34;;;;;;;5.43;1.20;;;5.70;99.90;;;;;;5009746;28;20108;-71
2023/04/13 05:34:01;;;;;;;8.10;1.75;;;5.70;99.90;;;;;;5017223;28;20038;-71
2023/04/13 05:36:28;;;;;;;5.68;1.42;;;5.70;99.90;;;;;;5027727;28;20037;-71
2023/04/13 05:38:55;;;;;;;8.10;1.58;;;5.80;99.90;;;;;;5022584;28;20030;-71
2023/04/13 05:41:21;;;;;;;7.85;1.40;;;5.80;99.90;;;;;;5023250;28;20034;-71
2023/04/13 05:43:48;;;;;;;6.68;1.73;;;5.90;99.90;;;;;;5016928;28;20030;-71
2023/04/13 05:46:14;;;;;;;8.32;1.67;;;6.00;99.90;;;;;;5026388;28;20037;-71
2023/04/13 05:48:43;;;;;;;10.35;1.77;;;6.00;99.90;;;;;;5031821;28;20087;-71
2023/04/13 05:51:12;;;;;;;10.98;1.95;;;6.10;99.90;;;;;;5012228;28;20037;-71
2023/04/13 05:53:38;;;;;;;8.00;1.42;;;6.20;99.90;;;;;;5012463;28;20495;-71
2023/04/13 05:56:05;;;;;;;5.38;1.42;;;6.20;99.90;;;;;;5020018;28;20022;-71
2023/04/13 05:58:31;;;;;;;8.43;2.25;;;6.30;99.90;;;;;;5018313;28;20062;-71
2023/04/13 06:00:57;;;;;;;9.82;1.60;;;6.30;99.90;;;;;;5013257;28;20082;-71
2023/04/13 06:03:45;;;;;;;7.25;1.80;;;;;;;;;;5016403;28;20037;-72
2023/04/13 06:06:11;;;;;;;5.03;1.60;;;6.40;99.90;;;;;;5015688;28;20141;-72
2023/04/13 06:08:37;;;;;;;8.10;2.47;;;6.40;99.90;;;;;;5015231;28;20026;-72
2023/04/13 06:11:05;;;;;;;5.45;1.83;;;6.40;99.90;;;;;;4999308;28;20030;-72
2023/04/13 06:13:30;;;;;;;8.43;3.25;;;6.40;99.90;;;;;;5010301;28;20096;-72
2023/04/13 06:15:57;;;;;;;10.93;2.25;;;6.40;99.90;;;;;;5022050;28;20025;-72
2023/04/13 06:18:25;;;;;;;5.63;1.85;;;6.50;99.90;;;;;;5016105;28;20022;-72
2023/04/13 06:20:51;;;;;;;6.72;2.20;;;6.50;99.90;;;;;;5015004;28;20635;-72
2023/04/13 06:23:17;;;;;;;6.65;2.33;;;6.50;99.90;;;;;;5010224;28;20068;-73
2023/04/13 06:25:43;;;;;;;5.47;2.33;;;6.60;99.90;;;;;;5012025;28;20053;-72
2023/04/13 06:28:10;;;;;;;10.23;1.80;;;6.60;99.90;;;;;;5011693;28;20407;-72
2023/04/13 06:30:36;;;;;;;6.32;1.70;;;6.60;99.90;;;;;;5023886;28;20038;-72
2023/04/13 06:33:03;;;;;;;12.07;2.58;;;6.70;99.90;;;;;;5008520;28;20064;-72
2023/04/13 06:35:29;;;;;;;2.45;1.02;;;6.70;99.90;;;;;;5026890;28;20053;-72
2023/04/13 06:37:58;;;;;;;9.40;2.13;;;6.70;99.90;;;;;;5015006;28;20038;-72
2023/04/13 06:40:24;;;;;;;6.32;1.60;;;6.70;99.90;;;;;;5012589;28;20104;-72
2023/04/13 06:42:50;;;;;;;7.50;1.73;;;6.70;99.90;;;;;;5020597;28;20022;-72
2023/04/13 06:45:16;;;;;;;5.03;1.60;;;6.80;99.90;;;;;;5019432;28;20552;-72
2023/04/13 06:47:41;;;;;;;7.85;1.48;;;6.80;99.90;;;;;;5018610;28;20022;-72
2023/04/13 06:50:09;;;;;;;11.82;1.85;;;6.80;99.90;;;;;;5018066;28;20033;-72
2023/04/13 06:52:35;;;;;;;7.07;1.42;;;6.90;99.90;;;;;;5010118;28;20031;-72
2023/04/13 06:55:01;;;;;;;8.30;1.70;;;6.90;99.90;;;;;;5012999;28;20026;-72
2023/04/13 06:57:27;;;;;;;8.27;2.50;;;7.00;99.90;;;;;;5009630;28;20026;-72
2023/04/13 06:59:53;;;;;;;6.25;1.63;;;7.10;99.90;;;;;;5018623;28;20038;-72
2023/04/13 07:02:19;;;;;;;8.95;1.90;;;7.30;99.90;;;;;;5009557;28;20044;-72
2023/04/13 07:04:45;;;;;;;8.63;1.58;;;;;;;;;;5013351;28;20033;-72
2023/04/13 07:07:11;;;;;;;10.07;2.63;;;7.30;99.90;;;;;;5013531;28;20034;-72
2023/04/13 07:09:36;;;;;;;8.02;2.22;;;7.40;99.90;;;;;;5014631;28;20044;-72
2023/04/13 07:12:03;;;;;;;11.27;3.10;;;7.50;99.90;;;;;;5007974;28;20474;-72
2023/04/13 07:14:37;;;;;;;11.02;2.30;;;7.60;99.90;;;;;;5010228;28;20037;-72
2023/04/13 07:17:03;;;;;;;5.57;1.55;;;7.70;99.90;;;;;;5025292;28;20025;-72
2023/04/13 07:19:33;;;;;;;5.38;1.90;;;7.70;99.90;;;;;;5019264;28;20022;-72
2023/04/13 07:22:00;;;;;;;6.82;1.85;;;7.70;99.90;;;;;;5025630;28;20070;-72
2023/04/13 07:24:27;;;;;;;7.45;1.92;;;7.80;99.90;;;;;;5010127;28;20029;-73
2023/04/13 07:26:58;;;;;;;6.72;1.77;;;7.80;99.90;;;;;;5011497;28;20391;-72
2023/04/13 07:29:24;;;;;;;10.40;2.08;;;7.80;99.90;;;;;;5014373;28;20491;-72
2023/04/13 07:31:50;;;;;;;7.82;2.00;;;7.80;99.90;;;;;;5010022;28;20030;-72
2023/04/13 07:34:16;;;;;;;6.55;2.10;;;7.70;99.90;;;;;;5011197;28;20057;-72
2023/04/13 07:36:42;;;;;;;6.50;2.15;;;7.80;99.90;;;;;;5008962;28;20025;-72
2023/04/13 07:39:09;;;;;;;7.78;2.10;;;7.90;99.90;;;;;;5017386;28;20029;-72
2023/04/13 07:41:35;;;;;;;9.35;2.72;;;7.90;99.90;;;;;;5010796;28;20062;-72
2023/04/13 07:44:03;;;;;;;11.32;2.10;;;8.00;99.90;;;;;;5012037;28;20566;-72
2023/04/13 07:46:29;;;;;;;7.25;1.63;;;8.10;99.90;;;;;;5005393;28;20034;-73
2023/04/13 07:48:55;;;;;;;6.97;1.60;;;8.10;99.90;;;;;;5009267;28;20451;-72
2023/04/13 07:51:22;;;;;;;14.68;2.15;;;8.10;99.90;;;;;;5010091;28;20042;-72
2023/04/13 07:53:47;;;;;;;4.03;1.40;;;8.20;99.90;;;;;;5020612;28;20029;-71
2023/04/13 07:56:14;;;;;;;4.80;1.60;;;8.20;99.90;;;;;;5009183;28;20370;-72
2023/04/13 07:58:40;;;;;;;11.93;4.00;;;8.20;99.90;;;;;;5012984;28;20048;-72
2023/04/13 08:01:06;;;;;;;13.00;6.05;;;;;;;;;;5016988;28;20628;-73
2023/04/13 08:03:33;;;;;;;13.73;6.30;;;8.20;99.90;;;;;;5007914;28;20029;-73
2023/04/13 08:05:59;;;;;;;9.55;2.88;;;8.30;99.90;;;;;;5008263;28;20029;-72
2023/04/13 08:08:25;;;;;;;14.45;3.55;;;8.30;99.90;;;;;;5025953;28;20041;-73
2023/04/13 08:10:52;;;;;;;9.25;2.50;;;8.50;99.90;;;;;;5022434;28;20084;-71
2023/04/13 08:13:18;;;;;;;9.60;2.72;;;8.50;99.90;;;;;;5015514;28;20062;-73
2023/04/13 08:15:44;;;;;;;7.18;2.30;;;8.50;99.90;;;;;;5013508;28;20506;-72
2023/04/13 08:18:10;;;;;;;8.35;2.58;;;8.60;99.90;;;;;;5009149;28;20347;-73
2023/04/13 08:20:35;;;;;;;6.82;2.15;;;8.70;99.90;;;;;;5007404;28;20064;-72
2023/04/13 08:23:02;;;;;;;6.80;1.73;;;8.80;99.90;;;;;;5009090;28;20037;-72
2023/04/13 08:25:28;;;;;;;7.00;2.25;;;8.80;99.90;;;;;;5012273;28;20120;-72
2023/04/13 08:27:53;;;;;;;6.07;2.65;;;8.80;99.90;;;;;;5012833;28;20585;-73
2023/04/13 08:30:19;;;;;;;9.95;2.22;;;8.70;99.90;;;;;;5022902;28;20084;-73
2023/04/13 08:32:45;;;;;;;7.75;3.10;;;8.70;99.90;;;;;;5017989;28;20033;-73
2023/04/13 08:35:11;;;;;;;8.15;2.38;;;8.70;99.90;;;;;;5001214;28;20033;-73
2023/04/13 08:37:38;;;;;;;10.38;2.20;;;8.80;99.90;;;;;;5005381;28;20517;-73
2023/04/13 08:40:06;;;;;;;10.15;2.13;;;9.00;99.90;;;;;;5013859;28;20424;-73
2023/04/13 08:42:32;;;;;;;5.55;1.80;;;;;;;;;;5017597;28;20109;-72
2023/04/13 08:44:58;;;;;;;7.13;2.53;;;9.00;99.90;;;;;;5002222;28;20049;-72
2023/04/13 08:47:26;;;;;;;11.40;2.63;;;9.10;99.90;;;;;;5009077;28;20518;-72
2023/04/13 08:49:56;;;;;;;10.63;3.25;;;9.20;99.90;;;;;;5011255;28;20040;-72
2023/04/13 08:52:22;;;;;;;8.98;2.00;;;9.40;99.90;;;;;;5016219;28;20064;-72
2023/04/13 08:54:49;;;;;;;5.38;1.80;;;9.40;99.90;;;;;;5020300;28;20022;-73
2023/04/13 08:57:15;;;;;;;7.75;1.80;;;9.40;99.90;;;;;;5008056;28;20414;-73
2023/04/13 08:59:42;;;;;;;7.40;1.50;;;9.40;99.90;;;;;;5010726;28;20152;-73
2023/04/13 09:02:08;;;;;;;3.42;1.50;;;;;;;;;;5019074;28;20059;-73
2023/04/13 09:04:35;;;;;;;4.35;1.30;;;9.40;99.90;;;;;;5011061;28;20188;-71
2023/04/13 09:07:03;;;;;;;5.70;1.30;;;;;;;;;;5011710;28;20056;-71
2023/04/13 09:09:31;;;;;;;5.13;1.30;;;9.50;99.90;;;;;;5014069;28;20037;-73
2023/04/13 09:11:57;;;;;;;3.67;1.00;;;9.60;99.90;;;;;;5024944;28;20093;-73
2023/04/13 09:14:23;;;;;;;7.22;1.40;;;9.50;99.90;;;;;;5013775;28;20033;-73
2023/04/13 09:16:50;;;;;;;7.28;1.33;;;;;;;;;;5010316;28;20047;-72
2023/04/13 09:19:16;;;;;;;5.13;1.73;;;9.40;99.90;;;;;;5026363;28;20049;-74
2023/04/13 09:21:43;;;;;;;6.32;1.08;;;9.50;99.90;;;;;;5011390;28;20076;-73
2023/04/13 09:24:10;;;;;;;5.10;1.45;;;9.60;99.90;;;;;;5019032;28;20041;-72
2023/04/13 09:26:40;;;;;;;6.93;1.95;;;;;;;;;;5012174;28;20045;-73
2023/04/13 09:29:09;;;;;;;3.63;1.15;;;9.70;99.90;;;;;;5023404;28;20036;-73
2023/04/13 09:31:38;;;;;;;5.60;1.35;;;;;;;;;;5013130;28;20034;-73
2023/04/13 09:34:04;;;;;;;5.40;1.17;;;;;;;;;;5008639;28;20033;-72
2023/04/13 09:36:31;;;;;;;10.15;1.30;;;9.70;99.90;;;;;;5011238;28;20021;-73
2023/04/13 09:38:57;;;;;;;6.50;1.40;;;9.80;99.90;;;;;;5003012;28;20398;-73
2023/04/13 09:41:36;;;;;;;6.32;1.35;;;9.90;99.90;;;;;;5002856;28;20071;-73
2023/04/13 09:44:19;;;;;;;5.75;1.75;;;9.90;99.90;;;;;;5004680;28;20026;-73
2023/04/13 09:46:56;;;;;;;8.02;1.38;;;;;;;;;;5015151;28;20033;-73
2023/04/13 09:49:22;;;;;;;6.63;1.45;;;9.80;99.90;;;;;;5017968;28;20045;-73
2023/04/13 09:51:47;;;;;;;4.20;1.30;;;9.80;99.90;;;;;;5019223;28;20029;-73
2023/04/13 09:54:20;;;;;;;3.22;1.00;;;9.90;99.90;;;;;;5019423;28;20026;-73
2023/04/13 09:56:50;;;;;;;4.88;1.48;;;9.90;99.90;;;;;;5011032;28;20052;-72
2023/04/13 09:59:17;;;;;;;5.15;1.25;;;;;;;;;;5010523;28;20528;-72
2023/04/13 10:01:43;;;;;;;6.53;1.95;;;;;;;;;;5011566;28;20482;-72
2023/04/13 10:04:09;;;;;;;6.63;1.83;;;;;;;;;;5010761;28;20045;-72
2023/04/13 10:06:39;;;;;;;4.63;1.52;;;10.10;99.90;;;;;;5014767;28;20130;-72
2023/04/13 10:09:06;;;;;;;4.55;1.50;;;10.10;99.90;;;;;;5015141;28;20108;-72
2023/04/13 10:11:44;;;;;;;3.55;1.23;;;10.10;99.90;;;;;;5017833;28;20049;-71
2023/04/13 10:14:18;;;;;;;3.88;1.30;;;10.10;99.90;;;;;;5011677;28;20044;-72
2023/04/13 10:17:29;;;;;;;2.65;1.00;;;10.10;99.90;;;;;;5018563;28;20026;-71
2023/04/13 10:20:00;;;;;;;5.70;1.27;;;10.20;99.90;;;;;;4994847;28;20727;-72
2023/04/13 10:22:28;;;;;;;4.75;1.15;;;10.30;99.90;;;;;;5019017;28;20445;-71
2023/04/13 10:24:53;;;;;;;3.13;0.90;;;10.50;99.90;;;;;;5018063;28;20025;-71
2023/04/13 10:27:22;;;;;;;2.45;0.90;;;10.50;99.90;;;;;;5021416;28;20096;-72
2023/04/13 10:29:48;;;;;;;4.65;1.48;;;10.70;99.90;;;;;;5024705;28;20045;-71
2023/04/13 10:32:25;;;;;;;3.85;0.80;;;10.80;99.90;;;;;;5016075;28;20033;-71
2023/04/13 10:34:52;;;;;;;3.25;1.15;;;10.80;99.90;;;;;;5017386;28;20505;-72
2023/04/13 10:37:20;;;;;;;2.90;1.10;;;10.60;99.90;;;;;;5010093;28;20038;-71
2023/04/13 10:39:46;;;;;;;3.40;0.90;;;10.50;99.90;;;;;;5015047;28;20444;-71
2023/04/13 10:42:14;;;;;;;4.13;1.23;;;10.20;99.90;;;;;;5008998;28;20151;-72
2023/04/13 10:44:47;;;;;;;3.80;0.95;;;10.10;99.90;;;;;;5016435;28;20409;-71
2023/04/13 10:47:15;;;;;;;3.08;0.68;;;9.90;99.90;;;;;;5024998;28;20540;-70
2023/04/13 10:49:42;;;;;;;2.08;0.70;;;9.70;99.90;;;;;;5011596;28;20034;-71
2023/04/13 10:52:09;;;;;;;2.08;0.93;;;9.30;99.90;;;;;;5010833;28;20057;-71
2023/04/13 10:54:36;;;;;;;2.28;0.90;;;9.20;99.90;;;;;;5010442;28;20033;-71
2023/04/13 10:57:05;;;;;;;3.00;0.57;;;9.20;99.90;;;;;;5015902;28;20028;-71
2023/04/13 10:59:51;;;;;;;1.50;0.70;;;9.50;99.90;;;;;;5016215;28;20537;-71
2023/04/13 11:02:17;;;;;;;3.40;0.47;;;9.80;99.90;;;;;;5012522;28;20022;-71
2023/04/13 11:04:45;;;;;;;2.28;0.47;;;10.10;99.90;;;;;;5004783;28;20033;-71
2023/04/13 11:07:13;;;;;;;2.55;0.50;;;10.40;99.90;;;;;;5013963;28;20112;-71
2023/04/13 11:09:41;;;;;;;1.00;0.40;;;10.70;99.90;;;;;;5013538;28;20379;-71
2023/04/13 11:12:09;;;;;;;1.30;0.40;;;10.90;99.90;;;;;;5013142;28;20406;-71
2023/04/13 11:14:37;;;;;;;1.92;0.50;;;11.20;99.90;;;;;;5010041;28;20038;-71
2023/04/13 11:17:11;;;;;;;0.75;0.40;;;11.30;99.90;;;;;;5009901;28;20025;-71
2023/04/13 11:19:51;;;;;;;1.45;0.50;;;11.60;99.90;;;;;;5007381;28;20121;-71
2023/04/13 11:22:18;;;;;;;1.10;0.40;;;11.70;99.90;;;;;;5008461;28;20022;-71
2023/04/13 11:24:45;;;;;;;2.10;0.40;;;11.80;99.90;;;;;;5010876;28;20837;-71
2023/04/13 11:27:17;;;;;;;1.35;0.20;;;11.80;99.90;;;;;;5010414;28;20077;-72
2023/04/13 11:29:43;;;;;;;2.10;0.50;;;11.90;99.90;;;;;;5005726;28;20137;-71
2023/04/13 11:32:18;;;;;;;1.15;0.38;;;12.10;99.90;;;;;;5015883;28;20113;-71
2023/04/13 11:34:43;;;;;;;0.20;0.20;;;12.20;99.90;;;;;;5006156;28;20029;-71
2023/04/13 11:37:10;;;;;;;2.85;0.30;;;12.30;99.90;;;;;;5011497;28;20037;-71
2023/04/13 11:39:37;;;;;;;0.40;0.20;;;12.40;99.90;;;;;;5007832;28;20029;-71
2023/04/13 11:42:05;;;;;;;1.58;0.28;;;12.50;99.90;;;;;;5008048;28;20372;-71
2023/04/13 11:44:33;;;;;;;1.70;0.40;;;12.70;99.90;;;;;;5007346;28;20156;-71
2023/04/13 11:47:00;;;;;;;1.05;0.30;;;12.80;99.90;;;;;;5004253;28;20030;-71
2023/04/13 11:49:26;;;;;;;1.23;0.30;;;12.70;99.90;;;;;;5009181;28;20056;-71
2023/04/13 11:51:52;;;;;;;0.22;0.20;;;12.60;99.90;;;;;;5010002;28;20054;-71
2023/04/13 11:54:18;;;;;;;0.68;0.30;;;12.70;99.90;;;;;;5016303;28;20026;-71
2023/04/13 11:56:44;;;;;;;1.17;0.30;;;12.50;99.90;;;;;;5009376;28;20053;-71
2023/04/13 11:59:11;;;;;;;0.63;0.40;;;12.50;99.90;;;;;;5008194;28;20511;-71
2023/04/13 12:01:37;;;;;;;0.70;0.38;;;12.60;99.90;;;;;;5007279;28;20028;-71
2023/04/13 12:04:04;;;;;;;1.15;0.40;;;12.60;99.90;;;;;;5013107;28;20030;-71
2023/04/13 12:06:33;;;;;;;0.82;0.43;;;12.50;99.90;;;;;;5009252;28;20479;-72
2023/04/13 12:09:00;;;;;;;0.88;0.70;;;12.40;99.90;;;;;;5010025;28;20045;-71
2023/04/13 12:11:26;;;;;;;2.40;0.82;;;12.30;99.90;;;;;;5011128;28;20119;-71
2023/04/13 12:13:55;;;;;;;2.03;1.00;;;12.20;99.90;;;;;;5020572;28;20061;-72
2023/04/13 12:16:27;;;;;;;2.35;0.90;;;12.00;99.90;;;;;;5021847;28;20100;-71
2023/04/13 12:18:53;;;;;;;2.35;0.70;;;11.80;99.90;;;;;;5008637;28;20026;-71
2023/04/13 12:21:20;;;;;;;1.02;0.50;;;;;;;;;;5016962;28;20367;-71
2023/04/13 12:23:57;;;;;;;2.97;0.80;;;11.20;99.90;;;;;;5009567;28;20034;-71
2023/04/13 12:26:33;;;;;;;0.90;0.70;;;10.90;99.90;;;;;;5017201;28;20084;-71
2023/04/13 12:29:05;;;;;;;0.60;0.40;;;10.70;99.90;;;;;;5016919;28;20117;-71
2023/04/13 12:31:38;;;;;;;1.92;0.43;;;10.80;99.90;;;;;;5026730;28;20029;-71
2023/04/13 12:34:07;;;;;;;0.50;0.20;;;11.00;99.90;;;;;;5023227;28;20028;-71
2023/04/13 12:36:35;;;;;;;0.32;0.32;;;11.20;99.90;;;;;;5026097;28;20508;-71
2023/04/13 12:39:01;;;;;;;1.10;0.20;;;11.50;99.90;;;;;;5013430;28;20045;-73
2023/04/13 12:41:27;;;;;;;1.52;0.40;;;11.80;99.90;;;;;;5013276;28;20029;-72
2023/04/13 12:43:53;;;;;;;1.70;0.30;;;12.10;99.90;;;;;;5016363;28;20038;-71
2023/04/13 12:46:19;;;;;;;1.10;0.30;;;12.40;99.90;;;;;;5012386;28;20041;-71
2023/04/13 12:48:45;;;;;;;2.30;0.50;;;12.70;99.90;;;;;;5016803;28;20029;-71
2023/04/13 12:51:10;;;;;;;2.08;0.77;;;13.00;99.90;;;;;;5017901;28;20030;-71
2023/04/13 12:53:36;;;;;;;0.90;0.40;;;13.20;99.90;;;;;;5022843;28;20172;-71
2023/04/13 12:56:02;;;;;;;2.33;0.50;;;13.40;99.90;;;;;;4665273;28;10000008;-71
2023/04/13 12:58:28;;;;;;;1.00;0.50;;;13.40;99.90;;;;;;5025618;28;20028;-71
2023/04/13 13:00:54;;;;;;;0.80;0.40;;;13.60;99.90;;;;;;5009147;28;20132;-70